Time;durP1;ratioP1;P1;durP2;ratioP2;P2;SDS_P1;SDS_P2;PMS_P1;PMS_P2;Temp;Humidity;BMP_temperature;BMP_pressure;BME280_temperature;BME280_humidity;BME280_pressure;Samples;Min_cycle;Max_cycle;Signal;HPM_P1;HPM_P2
2020/12/23 00:00:36;;;;;;;16.07;8.90;;;;;11.80;100888.00;;;;10561712;28;20245;-77
2020/12/23 00:05:41;;;;;;;13.80;8.77;;;;;11.80;100874.00;;;;10593112;27;20281;-77
2020/12/23 00:10:42;;;;;;;19.13;10.37;;;;;11.80;100876.00;;;;10577912;27;20227;-77
2020/12/23 00:15:47;;;;;;;23.80;10.20;;;;;11.80;100874.00;;;;10541111;27;20199;-77
2020/12/23 00:20:48;;;;;;;11.97;8.73;;;;;11.70;100859.00;;;;10562064;27;20274;-77
2020/12/23 00:25:50;;;;;;;13.97;8.60;;;;;11.70;100849.00;;;;10578142;27;20270;-77
2020/12/23 00:30:51;;;;;;;15.63;9.03;;;;;11.70;100857.00;;;;10583402;27;20184;-77
2020/12/23 00:36:01;;;;;;;15.50;9.37;;;;;11.70;100860.00;;;;10541451;27;20717;-77
2020/12/23 00:41:07;;;;;;;11.67;8.23;;;;;11.70;100839.00;;;;10557002;27;20778;-77
2020/12/23 00:46:13;;;;;;;17.90;9.03;;;;;11.70;100835.00;;;;10547731;27;20268;-77
2020/12/23 00:51:15;;;;;;;11.70;9.07;;;;;11.70;100835.00;;;;10506818;28;20570;-77
2020/12/23 00:56:19;;;;;;;16.53;9.00;;;;;11.70;100846.00;;;;10521173;28;20208;-77
2020/12/23 01:01:20;;;;;;;13.87;9.57;;;;;11.70;100839.00;;;;10548800;28;20227;-77
2020/12/23 01:06:22;;;;;;;11.97;8.47;;;;;11.70;100852.00;;;;10520308;28;20574;-77
2020/12/23 01:11:24;;;;;;;10.90;7.90;;;;;11.70;100838.00;;;;10501694;28;20192;-77
2020/12/23 01:16:25;;;;;;;11.30;8.33;;;;;11.60;100851.00;;;;10559842;28;20230;-77
2020/12/23 01:21:26;;;;;;;12.93;8.70;;;;;11.60;100830.00;;;;10581127;28;20568;-77
2020/12/23 01:26:28;;;;;;;17.07;10.13;;;;;11.60;100821.00;;;;10535785;28;20253;-77
2020/12/23 01:31:29;;;;;;;15.13;9.47;;;;;11.60;100831.00;;;;10528318;28;20206;-77
2020/12/23 01:36:38;;;;;;;14.93;8.27;;;;;11.60;100825.00;;;;10571995;28;20692;-77
2020/12/23 01:41:39;;;;;;;12.43;7.87;;;;;11.60;100824.00;;;;10570007;28;20619;-77
2020/12/23 01:46:42;;;;;;;14.30;7.77;;;;;11.60;100823.00;;;;10534731;28;20591;-77
2020/12/23 01:51:44;;;;;;;12.63;8.00;;;;;11.60;100820.00;;;;10528080;28;20200;-77
2020/12/23 01:56:46;;;;;;;10.37;7.90;;;;;11.60;100816.00;;;;10526093;28;20278;-77
2020/12/23 02:01:48;;;;;;;9.50;6.23;;;;;11.60;100801.00;;;;10535175;28;20195;-77
2020/12/23 02:06:56;;;;;;;8.17;6.97;;;;;11.60;100804.00;;;;10533485;27;20642;-77
2020/12/23 02:11:58;;;;;;;9.37;6.20;;;;;11.60;100803.00;;;;10576468;27;20223;-76
2020/12/23 02:16:59;;;;;;;6.20;5.50;;;;;11.60;100797.00;;;;10561396;27;20671;-76
2020/12/23 02:22:02;;;;;;;9.33;4.40;;;;;11.60;100790.00;;;;10552490;28;20635;-77
2020/12/23 02:27:03;;;;;;;5.97;4.77;;;;;11.70;100784.00;;;;10535636;27;20233;-77
2020/12/23 02:32:06;;;;;;;6.67;5.00;;;;;11.80;100775.00;;;;10580815;27;20340;-77
2020/12/23 02:37:15;;;;;;;6.03;5.37;;;;;11.80;100774.00;;;;10535387;28;20576;-77
2020/12/23 02:42:18;;;;;;;6.83;5.70;;;;;11.90;100764.00;;;;10529407;28;20724;-76
2020/12/23 02:47:20;;;;;;;7.60;5.73;;;;;11.90;100767.00;;;;10552870;27;20188;-77
2020/12/23 02:52:22;;;;;;;8.20;5.17;;;;;12.00;100762.00;;;;10549630;27;20196;-76
2020/12/23 02:57:23;;;;;;;6.87;5.60;;;;;12.00;100751.00;;;;10545715;27;20252;-77
2020/12/23 03:02:24;;;;;;;8.17;4.33;;;;;12.10;100747.00;;;;10569292;27;20880;-76
2020/12/23 03:07:34;;;;;;;5.60;3.60;;;;;12.10;100735.00;;;;10513115;27;20248;-76
2020/12/23 03:12:35;;;;;;;6.43;3.50;;;;;12.10;100728.00;;;;10585297;27;20199;-76
2020/12/23 03:17:37;;;;;;;11.67;5.00;;;;;12.10;100708.00;;;;10540215;28;20201;-77
2020/12/23 03:22:39;;;;;;;13.83;5.90;;;;;12.10;100722.00;;;;10523110;28;20635;-77
2020/12/23 03:27:40;;;;;;;10.50;5.20;;;;;12.10;100719.00;;;;10529033;28;20193;-76
2020/12/23 03:32:41;;;;;;;10.03;5.00;;;;;12.10;100726.00;;;;10514423;27;20240;-77
2020/12/23 03:37:52;;;;;;;6.43;3.70;;;;;12.10;100715.00;;;;10533665;27;20963;-77
2020/12/23 03:42:53;;;;;;;6.97;3.03;;;;;12.10;100709.00;;;;10572119;27;20208;-76
2020/12/23 03:47:54;;;;;;;4.93;2.10;;;;;12.10;100704.00;;;;10527549;28;20189;-77
2020/12/23 03:52:56;;;;;;;2.40;1.50;;;;;12.10;100705.00;;;;10589136;27;20240;-76
2020/12/23 03:57:57;;;;;;;2.73;1.20;;;;;12.00;100684.00;;;;10521591;28;20671;-76
2020/12/23 04:02:59;;;;;;;2.20;1.00;;;;;12.00;100688.00;;;;10531223;27;20192;-76
2020/12/23 04:08:10;;;;;;;3.37;0.90;;;;;12.00;100698.00;;;;10562655;28;20283;-77
2020/12/23 04:13:12;;;;;;;1.50;0.87;;;;;12.00;100696.00;;;;10584441;27;20240;-77
2020/12/23 04:18:13;;;;;;;1.07;0.80;;;;;11.90;100687.00;;;;10518780;28;20204;-76
2020/12/23 04:23:14;;;;;;;2.07;0.80;;;;;11.90;100687.00;;;;10506227;28;20245;-77
2020/12/23 04:28:16;;;;;;;1.07;0.70;;;;;11.90;100677.00;;;;10509943;28;20192;-77
2020/12/23 04:33:17;;;;;;;1.27;0.90;;;;;11.80;100678.00;;;;10514539;28;20250;-77
2020/12/23 04:38:39;;;;;;;0.70;0.70;;;;;11.80;100670.00;;;;10526830;27;20207;-76
2020/12/23 04:43:40;;;;;;;1.13;0.70;;;;;11.70;100673.00;;;;10562371;28;20575;-76
2020/12/23 04:48:42;;;;;;;1.13;0.80;;;;;11.70;100671.00;;;;10545133;28;20228;-77
2020/12/23 04:53:43;;;;;;;1.37;1.00;;;;;11.60;100671.00;;;;10531214;27;20310;-77
2020/12/23 04:58:45;;;;;;;1.33;0.83;;;;;11.60;100663.00;;;;10612638;27;20640;-77
2020/12/23 05:03:47;;;;;;;1.37;0.90;;;;;11.50;100655.00;;;;10556473;28;20200;-76
2020/12/23 05:08:50;;;;;;;3.80;1.20;;;;;11.50;100662.00;;;;10574324;28;20183;-77
2020/12/23 05:13:52;;;;;;;3.50;1.00;;;;;11.50;100677.00;;;;10536627;28;20192;-76
2020/12/23 05:18:57;;;;;;;2.50;1.17;;;;;11.50;100670.00;;;;10543371;28;20254;-77
2020/12/23 05:23:58;;;;;;;1.57;1.40;;;;;11.60;100677.00;;;;10553819;28;20349;-76
2020/12/23 05:28:59;;;;;;;1.63;1.03;;;;;11.60;100667.00;;;;10495017;28;20193;-77
2020/12/23 05:34:05;;;;;;;1.53;1.17;;;;;11.60;100671.00;;;;10502301;28;20197;-76
2020/12/23 05:39:10;;;;;;;2.37;1.50;;;;;11.70;100668.00;;;;10542924;28;20192;-76
2020/12/23 05:44:21;;;;;;;2.40;1.53;;;;;11.70;100664.00;;;;10592582;27;20215;-76
2020/12/23 05:49:25;;;;;;;3.43;2.00;;;;;11.70;100666.00;;;;10550409;28;20237;-76
2020/12/23 05:54:27;;;;;;;2.53;1.60;;;;;11.70;100672.00;;;;10583374;27;20192;-76
2020/12/23 05:59:28;;;;;;;4.30;1.60;;;;;11.70;100667.00;;;;10568247;28;20232;-76
2020/12/23 06:04:36;;;;;;;5.70;2.13;;;;;11.60;100655.00;;;;10572122;27;20188;-77
2020/12/23 06:09:46;;;;;;;3.57;1.80;;;;;11.60;100652.00;;;;10564519;27;20192;-77
2020/12/23 06:14:56;;;;;;;4.33;1.73;;;;;11.60;100651.00;;;;10549997;27;20216;-76
2020/12/23 06:20:00;;;;;;;4.80;2.07;;;;;11.60;100652.00;;;;10530705;27;20662;-77
2020/12/23 06:25:03;;;;;;;2.57;1.63;;;;;11.60;100646.00;;;;10552544;27;20222;-77
2020/12/23 06:30:05;;;;;;;3.20;2.00;;;;;11.60;100643.00;;;;10569069;27;20278;-76
2020/12/23 06:35:06;;;;;;;3.43;2.23;;;;;11.50;100643.00;;;;10546826;27;20270;-77
2020/12/23 06:40:11;;;;;;;4.23;2.07;;;;;11.60;100636.00;;;;10581395;27;20296;-77
2020/12/23 06:45:14;;;;;;;3.33;1.67;;;;;11.60;100624.00;;;;10588997;27;20673;-77
2020/12/23 06:50:25;;;;;;;2.40;1.90;;;;;11.50;100619.00;;;;10518207;27;20188;-77
2020/12/23 06:55:47;;;;;;;2.77;1.50;;;;;11.50;100624.00;;;;10549536;27;20211;-77
2020/12/23 07:00:48;;;;;;;2.43;1.50;;;;;11.50;100625.00;;;;10565662;28;20710;-76
2020/12/23 07:05:49;;;;;;;3.10;1.30;;;;;11.40;100620.00;;;;10573752;27;20573;-77
2020/12/23 07:10:51;;;;;;;2.57;1.60;;;;;11.40;100614.00;;;;10574135;27;20244;-76
2020/12/23 07:15:57;;;;;;;5.23;2.20;;;;;11.40;100616.00;;;;10540046;28;20265;-77
2020/12/23 07:21:05;;;;;;;3.23;1.70;;;;;11.40;100616.00;;;;10565607;28;20192;-77
2020/12/23 07:26:08;;;;;;;3.37;1.87;;;;;11.40;100611.00;;;;10556949;28;20836;-77
2020/12/23 07:31:10;;;;;;;5.20;1.97;;;;;11.40;100615.00;;;;10547800;27;20199;-77
2020/12/23 07:36:12;;;;;;;3.83;2.50;;;;;11.40;100609.00;;;;10590608;27;20208;-76
2020/12/23 07:41:14;;;;;;;3.10;2.10;;;;;11.40;100609.00;;;;10581105;27;20197;-77
2020/12/23 07:46:22;;;;;;;4.57;2.53;;;;;11.40;100604.00;;;;10565308;27;20621;-77
2020/12/23 07:51:28;;;;;;;8.67;2.77;;;;;11.40;100593.00;;;;10570116;27;20191;-77
2020/12/23 07:56:37;;;;;;;4.63;2.03;;;;;11.40;100587.00;;;;10552856;28;20220;-77
2020/12/23 08:01:41;;;;;;;4.30;2.60;;;;;11.50;100572.00;;;;10528623;28;20193;-77
2020/12/23 08:06:42;;;;;;;4.20;2.03;;;;;11.60;100568.00;;;;10567461;27;20191;-77
2020/12/23 08:11:44;;;;;;;4.33;2.67;;;;;11.70;100559.00;;;;10554603;27;20206;-77
2020/12/23 08:16:45;;;;;;;6.40;2.60;;;;;11.80;100543.00;;;;10601698;27;20785;-77
2020/12/23 08:21:46;;;;;;;2.77;2.57;;;;;11.90;100529.00;;;;10542828;28;20219;-77
2020/12/23 08:26:48;;;;;;;4.50;3.27;;;;;11.90;100521.00;;;;10527189;28;20197;-77
2020/12/23 08:31:53;;;;;;;5.37;3.90;;;;;11.90;100519.00;;;;10537131;27;20249;-76
2020/12/23 08:36:54;;;;;;;5.07;3.17;;;;;11.90;100523.00;;;;10586575;27;20203;-77
2020/12/23 08:42:06;;;;;;;6.07;2.70;;;;;11.90;100522.00;;;;10530304;27;20187;-76
2020/12/23 08:47:10;;;;;;;3.67;2.27;;;;;11.90;100529.00;;;;10566252;27;20188;-76
2020/12/23 08:52:17;;;;;;;3.13;1.80;;;;;11.90;100541.00;;;;10542017;28;20284;-77
2020/12/23 08:57:27;;;;;;;2.80;1.30;;;;;11.90;100535.00;;;;10519154;27;20236;-76
2020/12/23 09:02:36;;;;;;;1.27;1.07;;;;;11.90;100531.00;;;;10561624;28;20231;-77
2020/12/23 09:07:37;;;;;;;4.80;1.20;;;;;11.90;100521.00;;;;10562361;28;20237;-76
2020/12/23 09:12:38;;;;;;;5.60;1.30;;;;;12.00;100515.00;;;;10544705;27;20196;-77
2020/12/23 09:17:40;;;;;;;1.10;0.93;;;;;12.10;100509.00;;;;10570117;27;20207;-77
2020/12/23 09:22:46;;;;;;;1.60;0.90;;;;;12.10;100509.00;;;;10552429;27;20225;-76
2020/12/23 09:27:53;;;;;;;1.93;1.00;;;;;12.10;100498.00;;;;10565324;27;20180;-76
2020/12/23 09:32:54;;;;;;;1.47;0.90;;;;;12.10;100501.00;;;;10568562;27;20196;-76
2020/12/23 09:38:23;;;;;;;1.10;0.70;;;;;12.10;100508.00;;;;10555059;28;20288;-76
2020/12/23 09:43:26;;;;;;;2.00;0.80;;;;;12.00;100498.00;;;;10545801;28;20759;-77
2020/12/23 09:48:28;;;;;;;1.30;0.80;;;;;12.00;100493.00;;;;10550181;28;20204;-77
2020/12/23 09:53:30;;;;;;;2.53;1.20;;;;;12.00;100505.00;;;;10550693;27;20598;-77
2020/12/23 09:58:31;;;;;;;2.93;0.90;;;;;12.00;100509.00;;;;10558425;28;20223;-75
2020/12/23 10:03:32;;;;;;;1.50;1.20;;;;;12.00;100514.00;;;;10585332;27;20260;-77
2020/12/23 10:08:34;;;;;;;1.23;1.13;;;;;12.10;100497.00;;;;10510847;28;20874;-77
2020/12/23 10:13:35;;;;;;;2.27;1.10;;;;;12.10;100511.00;;;;10521903;28;20678;-77
2020/12/23 10:18:36;;;;;;;1.33;0.73;;;;;12.10;100495.00;;;;10537561;28;20926;-78
2020/12/23 10:23:38;;;;;;;0.63;0.60;;;;;12.10;100482.00;;;;10541900;28;20238;-78
2020/12/23 10:28:40;;;;;;;1.13;1.03;;;;;12.20;100462.00;;;;10537095;28;20204;-78
2020/12/23 10:33:41;;;;;;;1.33;0.90;;;;;12.40;100465.00;;;;10547286;27;20227;-78
2020/12/23 10:38:43;;;;;;;2.90;1.10;;;;;12.40;100456.00;;;;10504814;28;20209;-77
2020/12/23 10:43:45;;;;;;;2.57;0.80;;;;;12.50;100447.00;;;;10511553;27;20219;-78
2020/12/23 10:48:46;;;;;;;1.70;1.10;;;;;12.50;100442.00;;;;10536557;27;20180;-77
2020/12/23 10:53:47;;;;;;;3.07;0.97;;;;;12.50;100444.00;;;;10529148;27;20257;-77
2020/12/23 10:58:49;;;;;;;2.30;1.23;;;;;12.40;100442.00;;;;10557614;28;20265;-77
2020/12/23 11:03:55;;;;;;;2.43;1.03;;;;;12.30;100436.00;;;;10503413;28;20223;-77
2020/12/23 11:08:57;;;;;;;1.03;0.90;;;;;12.30;100438.00;;;;10545256;27;20196;-77
2020/12/23 11:13:59;;;;;;;2.30;1.30;;;;;12.40;100433.00;;;;10521598;28;20283;-77
2020/12/23 11:19:02;;;;;;;2.30;1.70;;;;;12.30;100428.00;;;;10525241;28;20687;-76
2020/12/23 11:24:03;;;;;;;2.47;2.10;;;;;12.20;100423.00;;;;10532858;27;20329;-76
2020/12/23 11:29:04;;;;;;;5.47;3.10;;;;;12.20;100422.00;;;;10546556;27;20265;-77
2020/12/23 11:34:07;;;;;;;2.53;1.20;;;;;12.10;100374.00;;;;10559537;27;20200;-77
2020/12/23 11:39:08;;;;;;;3.00;1.43;;;;;12.10;100288.00;;;;10552089;27;20241;-78
2020/12/23 11:44:09;;;;;;;1.47;1.00;;;;;12.10;100319.00;;;;10545510;27;20218;-77
2020/12/23 11:49:11;;;;;;;1.17;1.00;;;;;12.10;100332.00;;;;10521719;27;20294;-76
2020/12/23 11:54:12;;;;;;;1.57;0.80;;;;;12.00;100343.00;;;;10538867;28;20196;-76
2020/12/23 11:59:14;;;;;;;2.30;0.60;;;;;12.00;100363.00;;;;10543367;28;20536;-76
2020/12/23 12:04:15;;;;;;;2.53;1.00;;;;;12.00;100339.00;;;;10547905;27;20200;-76
2020/12/23 12:09:16;;;;;;;1.27;1.07;;;;;12.00;100273.00;;;;10544385;28;20194;-76
2020/12/23 12:14:18;;;;;;;2.13;1.93;;;;;12.20;100249.00;;;;10544019;28;20280;-76
2020/12/23 12:19:19;;;;;;;2.50;1.23;;;;;12.40;100251.00;;;;10564528;27;20208;-76
2020/12/23 12:24:20;;;;;;;2.00;1.50;;;;;12.50;100255.00;;;;10511461;27;20196;-76
2020/12/23 12:29:22;;;;;;;2.63;1.30;;;;;12.60;100258.00;;;;10561529;28;20241;-76
2020/12/23 12:34:23;;;;;;;1.87;1.40;;;;;12.70;100246.00;;;;10560639;27;20187;-78
2020/12/23 12:39:25;;;;;;;2.03;1.00;;;;;12.80;100238.00;;;;10525927;28;20677;-77
2020/12/23 12:44:28;;;;;;;1.30;1.10;;;;;12.90;100235.00;;;;10549834;27;20322;-77
2020/12/23 12:49:29;;;;;;;2.40;0.97;;;;;12.90;100219.00;;;;10557422;27;20199;-77
2020/12/23 12:54:31;;;;;;;1.93;1.07;;;;;12.80;100224.00;;;;10581316;27;20345;-76
2020/12/23 12:59:34;;;;;;;2.73;1.10;;;;;12.70;100219.00;;;;10536232;27;20230;-76
2020/12/23 13:04:36;;;;;;;2.30;0.70;;;;;12.70;100224.00;;;;10559837;28;20595;-77
2020/12/23 13:09:37;;;;;;;1.80;0.90;;;;;12.60;100223.00;;;;10508062;28;20269;-76
2020/12/23 13:14:38;;;;;;;1.67;0.70;;;;;12.60;100209.00;;;;10536955;28;20352;-77
2020/12/23 13:19:40;;;;;;;1.23;0.60;;;;;13.20;100160.00;;;;10519554;28;20224;-77
2020/12/23 13:24:41;;;;;;;1.33;0.80;;;;;13.60;100147.00;;;;10535081;28;20211;-77
2020/12/23 13:29:43;;;;;;;0.83;0.73;;;;;13.20;100172.00;;;;10541035;28;20195;-77
2020/12/23 13:34:44;;;;;;;1.33;0.80;;;;;13.00;100183.00;;;;10576488;28;20187;-76
2020/12/23 13:39:46;;;;;;;1.17;0.83;;;;;12.90;100184.00;;;;10521424;28;20196;-77
2020/12/23 13:44:47;;;;;;;1.03;0.80;;;;;12.80;100195.00;;;;10573665;28;20265;-76
2020/12/23 13:49:49;;;;;;;4.80;0.70;;;;;12.60;100195.00;;;;10533486;28;20188;-76
2020/12/23 13:54:51;;;;;;;0.97;0.70;;;;;12.40;100180.00;;;;10547984;28;20203;-77
2020/12/23 13:59:53;;;;;;;1.03;0.70;;;;;12.60;100177.00;;;;10542118;28;20623;-77
2020/12/23 14:04:54;;;;;;;0.80;0.50;;;;;12.60;100172.00;;;;10557541;27;20192;-77
2020/12/23 14:09:55;;;;;;;1.20;0.80;;;;;12.60;100185.00;;;;10500435;27;20211;-77
2020/12/23 14:14:57;;;;;;;0.80;0.80;;;;;12.50;100183.00;;;;10478552;28;20225;-77
2020/12/23 14:19:58;;;;;;;3.13;1.30;;;;;12.60;100171.00;;;;10491519;27;20284;-77
2020/12/23 14:25:00;;;;;;;1.33;0.90;;;;;13.30;100168.00;;;;10521726;27;20200;-76
2020/12/23 14:30:04;;;;;;;1.57;1.17;;;;;12.90;100161.00;;;;10536319;27;20196;-77
2020/12/23 14:35:06;;;;;;;1.33;0.70;;;;;12.80;100159.00;;;;10548472;27;20246;-77
2020/12/23 14:40:09;;;;;;;1.10;0.83;;;;;12.60;100156.00;;;;10550819;28;20254;-77
2020/12/23 14:45:10;;;;;;;1.30;1.03;;;;;12.60;100140.00;;;;10539887;28;20318;-76
2020/12/23 14:50:12;;;;;;;1.87;1.10;;;;;12.70;100145.00;;;;10541217;27;20176;-77
2020/12/23 14:55:13;;;;;;;1.63;1.00;;;;;12.70;100133.00;;;;10566405;27;20256;-76
2020/12/23 15:00:15;;;;;;;0.97;0.87;;;;;12.60;100128.00;;;;10548180;27;20232;-77
2020/12/23 15:05:16;;;;;;;1.00;0.90;;;;;12.60;100130.00;;;;10548387;27;20204;-77
2020/12/23 15:10:18;;;;;;;1.17;1.00;;;;;12.50;100122.00;;;;10584279;27;20188;-77
2020/12/23 15:15:22;;;;;;;1.80;1.20;;;;;12.60;100130.00;;;;10538571;27;20245;-77
2020/12/23 15:20:23;;;;;;;1.20;1.10;;;;;12.60;100127.00;;;;10537017;27;20223;-76
2020/12/23 15:25:24;;;;;;;1.30;1.00;;;;;12.60;100113.00;;;;10529104;27;20200;-76
2020/12/23 15:30:26;;;;;;;3.20;1.30;;;;;12.60;100123.00;;;;10538660;27;20192;-76
2020/12/23 15:35:27;;;;;;;1.90;1.00;;;;;12.60;100104.00;;;;10533058;28;20196;-76
2020/12/23 15:40:28;;;;;;;1.87;1.30;;;;;12.60;100100.00;;;;10533248;28;20212;-77
2020/12/23 15:45:37;;;;;;;1.37;1.20;;;;;12.50;100092.00;;;;10527987;28;20219;-77
2020/12/23 15:50:38;;;;;;;1.30;1.20;;;;;12.40;100092.00;;;;10553378;27;20746;-77
2020/12/23 15:55:39;;;;;;;1.90;1.33;;;;;12.40;100091.00;;;;10558226;28;20273;-76
2020/12/23 16:00:41;;;;;;;1.70;1.10;;;;;12.40;100094.00;;;;10518877;27;20200;-76
2020/12/23 16:05:42;;;;;;;4.07;1.70;;;;;12.30;100086.00;;;;10544148;28;20278;-77
2020/12/23 16:10:43;;;;;;;3.33;1.63;;;;;12.30;100088.00;;;;10538249;28;20224;-77
2020/12/23 16:15:55;;;;;;;3.40;2.53;;;;;12.30;100087.00;;;;10536187;28;20204;-77
2020/12/23 16:20:56;;;;;;;3.93;2.03;;;;;12.20;100090.00;;;;10529229;27;20671;-77
2020/12/23 16:25:58;;;;;;;4.20;1.67;;;;;12.10;100090.00;;;;10539776;28;20553;-77
2020/12/23 16:30:59;;;;;;;2.67;2.00;;;;;12.00;100095.00;;;;10536674;28;20645;-77
2020/12/23 16:36:03;;;;;;;3.47;1.97;;;;;12.10;100085.00;;;;10562611;28;20278;-77
2020/12/23 16:41:04;;;;;;;3.40;2.20;;;;;12.10;100093.00;;;;10540329;28;20212;-76
2020/12/23 16:46:14;;;;;;;2.70;2.30;;;;;12.10;100095.00;;;;10514236;27;20211;-77
2020/12/23 16:51:16;;;;;;;4.20;2.57;;;;;12.10;100094.00;;;;10504299;28;20184;-77
2020/12/23 16:56:18;;;;;;;2.87;2.13;;;;;12.00;100086.00;;;;10551643;28;20727;-77
2020/12/23 17:01:19;;;;;;;4.73;2.30;;;;;11.90;100079.00;;;;10535929;28;20207;-77
2020/12/23 17:06:20;;;;;;;3.43;2.50;;;;;11.90;100075.00;;;;10554839;28;20211;-76
2020/12/23 17:11:22;;;;;;;3.50;2.50;;;;;11.90;100076.00;;;;10544867;28;20226;-77
2020/12/23 17:16:30;;;;;;;5.13;2.60;;;;;11.90;100084.00;;;;10531457;28;20272;-77
2020/12/23 17:21:34;;;;;;;4.07;2.83;;;;;12.00;100083.00;;;;10558789;28;20259;-77
2020/12/23 17:26:36;;;;;;;6.00;2.27;;;;;12.00;100075.00;;;;10572143;28;20212;-77
2020/12/23 17:31:38;;;;;;;6.20;2.30;;;;;12.10;100086.00;;;;10566122;28;20195;-77
2020/12/23 17:36:41;;;;;;;3.80;2.50;;;;;12.10;100080.00;;;;10535251;27;20257;-76
2020/12/23 17:41:47;;;;;;;4.23;2.47;;;;;12.00;100066.00;;;;10553583;27;20196;-77
2020/12/23 17:46:53;;;;;;;4.07;2.20;;;;;12.00;100065.00;;;;10562653;27;20643;-77
2020/12/23 17:52:00;;;;;;;7.87;2.97;;;;;11.90;100068.00;;;;10543081;28;20208;-76
2020/12/23 17:57:07;;;;;;;2.90;2.00;;;;;11.90;100063.00;;;;10550316;28;20215;-77
2020/12/23 18:02:08;;;;;;;5.57;2.10;;;;;12.00;100064.00;;;;10552788;27;20196;-77
2020/12/23 18:07:13;;;;;;;6.40;2.00;;;;;12.00;100064.00;;;;10553261;28;20184;-77
2020/12/23 18:12:15;;;;;;;4.43;1.93;;;;;12.00;100080.00;;;;10533656;27;20672;-77
2020/12/23 18:17:16;;;;;;;3.57;1.77;;;;;12.00;100082.00;;;;10553220;27;20685;-77
2020/12/23 18:22:19;;;;;;;3.70;1.77;;;;;11.90;100090.00;;;;10538209;28;20242;-76
2020/12/23 18:27:20;;;;;;;5.30;1.83;;;;;11.80;100115.00;;;;10566795;27;20218;-77
2020/12/23 18:32:22;;;;;;;2.60;1.20;;;;;11.80;100116.00;;;;10560307;27;20217;-77
2020/12/23 18:37:23;;;;;;;2.80;1.00;;;;;11.60;100116.00;;;;10567637;27;20212;-76
2020/12/23 18:42:24;;;;;;;4.57;1.40;;;;;11.40;100137.00;;;;10550191;27;20249;-76
2020/12/23 18:47:26;;;;;;;4.97;1.60;;;;;11.30;100132.00;;;;10539419;28;20234;-77
2020/12/23 18:52:27;;;;;;;4.43;2.00;;;;;11.30;100136.00;;;;10554286;27;20291;-77
2020/12/23 18:57:29;;;;;;;3.13;1.70;;;;;11.30;100146.00;;;;10533880;27;20555;-76
2020/12/23 19:02:30;;;;;;;4.57;2.00;;;;;11.20;100137.00;;;;10543029;28;20212;-76
2020/12/23 19:07:32;;;;;;;5.20;3.10;;;;;11.10;100140.00;;;;10549417;28;20200;-77
2020/12/23 19:12:34;;;;;;;5.50;2.43;;;;;10.90;100142.00;;;;10572142;27;20709;-77
2020/12/23 19:17:45;;;;;;;4.90;1.90;;;;;10.80;100136.00;;;;10574925;27;20219;-76
2020/12/23 19:22:48;;;;;;;5.80;1.70;;;;;10.80;100142.00;;;;10534781;27;20576;-76
2020/12/23 19:27:51;;;;;;;3.40;1.37;;;;;10.80;100130.00;;;;10587400;27;20195;-76
2020/12/23 19:33:02;;;;;;;6.07;1.87;;;;;10.70;100139.00;;;;10542646;27;20189;-76
2020/12/23 19:38:06;;;;;;;5.87;2.27;;;;;10.70;100143.00;;;;10565614;27;20298;-77
2020/12/23 19:43:08;;;;;;;3.60;1.60;;;;;10.60;100143.00;;;;10526381;28;20246;-76
2020/12/23 19:48:11;;;;;;;10.40;1.90;;;;;10.50;100159.00;;;;10546534;28;20192;-76
2020/12/23 19:53:13;;;;;;;3.63;1.60;;;;;10.40;100169.00;;;;10523815;27;20197;-76
2020/12/23 19:58:15;;;;;;;3.70;1.50;;;;;10.40;100157.00;;;;10539325;28;20208;-76
2020/12/23 20:03:18;;;;;;;7.27;2.37;;;;;10.30;100167.00;;;;10528703;27;20225;-76
2020/12/23 20:08:19;;;;;;;3.80;1.67;;;;;10.20;100163.00;;;;10579221;27;20188;-76
2020/12/23 20:13:20;;;;;;;9.30;1.90;;;;;10.10;100156.00;;;;10530458;27;20238;-76
2020/12/23 20:18:22;;;;;;;6.67;2.00;;;;;10.10;100146.00;;;;10534364;28;20197;-76
2020/12/23 20:23:24;;;;;;;6.93;1.90;;;;;10.00;100154.00;;;;10563027;27;20666;-77
2020/12/23 20:28:26;;;;;;;4.30;1.50;;;;;9.90;100155.00;;;;10546395;28;20253;-76
2020/12/23 20:33:27;;;;;;;6.77;1.63;;;;;9.90;100150.00;;;;10542712;28;20188;-76
2020/12/23 20:38:47;;;;;;;6.23;1.93;;;;;9.90;100150.00;;;;10558423;28;20226;-77
2020/12/23 20:43:48;;;;;;;5.43;1.50;;;;;10.00;100148.00;;;;10558412;27;20220;-76
2020/12/23 20:48:50;;;;;;;7.53;1.90;;;;;10.00;100156.00;;;;10526093;28;20677;-77
2020/12/23 20:53:51;;;;;;;10.90;2.20;;;;;9.90;100159.00;;;;10525986;28;20196;-76
2020/12/23 20:58:53;;;;;;;5.20;2.03;;;;;9.90;100157.00;;;;10577002;27;20268;-76
2020/12/23 21:03:54;;;;;;;5.53;1.30;;;;;9.90;100149.00;;;;10551207;28;20279;-76
2020/12/23 21:08:55;;;;;;;6.73;1.70;;;;;9.90;100163.00;;;;10524984;28;20260;-76
2020/12/23 21:13:58;;;;;;;8.67;2.17;;;;;9.80;100158.00;;;;10557612;28;20304;-76
2020/12/23 21:19:02;;;;;;;7.60;1.97;;;;;9.70;100144.00;;;;10559600;28;20203;-77
2020/12/23 21:24:04;;;;;;;14.30;2.23;;;;;9.60;100151.00;;;;10542960;28;20202;-76
2020/12/23 21:29:06;;;;;;;7.63;2.00;;;;;9.50;100149.00;;;;10551627;28;20220;-76
2020/12/23 21:34:09;;;;;;;9.17;2.63;;;;;9.60;100147.00;;;;10551815;28;20255;-76
2020/12/23 21:39:11;;;;;;;7.20;2.07;;;;;9.70;100149.00;;;;10543761;28;20200;-76
2020/12/23 21:44:12;;;;;;;8.43;2.13;;;;;9.70;100153.00;;;;10567636;28;20246;-76
2020/12/23 21:49:18;;;;;;;11.53;2.20;;;;;9.60;100154.00;;;;10523110;28;20188;-76
2020/12/23 21:54:20;;;;;;;5.50;2.07;;;;;9.50;100154.00;;;;10544110;27;20662;-76
2020/12/23 21:59:21;;;;;;;7.33;2.20;;;;;9.60;100154.00;;;;10569828;28;20253;-76
2020/12/23 22:04:22;;;;;;;8.27;2.10;;;;;9.60;100164.00;;;;10561116;28;20278;-76
2020/12/23 22:09:24;;;;;;;8.07;1.57;;;;;9.50;100166.00;;;;10544791;28;20191;-76
2020/12/23 22:14:26;;;;;;;7.77;1.70;;;;;9.50;100168.00;;;;10561013;28;20203;-76
2020/12/23 22:19:35;;;;;;;12.17;2.63;;;;;9.50;100164.00;;;;10557016;28;20205;-76
2020/12/23 22:24:37;;;;;;;14.70;2.37;;;;;9.50;100182.00;;;;10547268;27;20201;-77
2020/12/23 22:29:38;;;;;;;12.20;2.50;;;;;9.40;100167.00;;;;10582808;27;20209;-76
2020/12/23 22:34:39;;;;;;;6.27;1.73;;;;;9.30;100176.00;;;;10585955;27;20192;-77
2020/12/23 22:39:41;;;;;;;9.63;2.20;;;;;9.30;100187.00;;;;10558719;27;20773;-76
2020/12/23 22:44:42;;;;;;;10.40;2.20;;;;;9.30;100180.00;;;;10549604;27;20382;-76
2020/12/23 22:49:54;;;;;;;6.63;1.80;;;;;9.40;100188.00;;;;10549898;28;20188;-77
2020/12/23 22:54:55;;;;;;;13.60;2.33;;;;;9.40;100186.00;;;;10518496;27;20580;-77
2020/12/23 22:59:57;;;;;;;12.00;2.60;;;;;9.40;100183.00;;;;10541274;27;20312;-77
2020/12/23 23:04:58;;;;;;;13.20;3.13;;;;;9.30;100172.00;;;;10582031;27;20283;-77
2020/12/23 23:10:02;;;;;;;8.47;2.00;;;;;9.20;100176.00;;;;10547830;28;20272;-77
2020/12/23 23:15:04;;;;;;;12.93;3.60;;;;;9.10;100169.00;;;;10555262;27;20214;-77
2020/12/23 23:20:15;;;;;;;10.10;2.47;;;;;9.10;100177.00;;;;10563245;27;20302;-77
2020/12/23 23:25:17;;;;;;;7.93;1.83;;;;;9.20;100188.00;;;;10560220;27;20192;-77
2020/12/23 23:30:21;;;;;;;10.27;1.97;;;;;9.20;100184.00;;;;10544373;28;20192;-77
2020/12/23 23:35:23;;;;;;;9.00;2.43;;;;;9.30;100179.00;;;;10547163;28;20620;-77
2020/12/23 23:40:25;;;;;;;12.77;2.77;;;;;9.20;100176.00;;;;10547906;28;20230;-77
2020/12/23 23:45:26;;;;;;;9.97;2.37;;;;;9.20;100184.00;;;;10546358;27;20302;-77
2020/12/23 23:50:35;;;;;;;9.23;2.17;;;;;9.20;100192.00;;;;10532909;28;20195;-77
2020/12/23 23:55:36;;;;;;;8.73;2.10;;;;;9.10;100201.00;;;;10564223;28;20245;-77
